createdAt,value
2022-09-09T00:01:32.673Z,20.15
2022-09-09T00:04:07.591Z,19.96
2022-09-09T00:06:46.344Z,20.09
2022-09-09T00:09:19.322Z,20.10
2022-09-09T00:11:53.821Z,20.02
2022-09-09T00:14:31.625Z,20.01
2022-09-09T00:17:05.140Z,20.17
2022-09-09T00:19:41.255Z,20.31
2022-09-09T00:22:18.379Z,20.41
2022-09-09T00:24:51.627Z,20.37
2022-09-09T00:27:30.257Z,20.29
2022-09-09T00:30:03.549Z,20.20
2022-09-09T00:32:36.909Z,20.07
2022-09-09T00:35:19.187Z,20.11
2022-09-09T00:37:51.152Z,19.59
2022-09-09T00:40:34.857Z,19.85
2022-09-09T00:43:22.115Z,19.69
2022-09-09T00:46:30.455Z,19.57
2022-09-09T00:49:06.440Z,19.89
2022-09-09T00:51:47.412Z,20.05
2022-09-09T00:54:40.339Z,19.72
2022-09-09T00:57:28.860Z,19.95
2022-09-09T01:00:18.321Z,19.94
2022-09-09T01:02:59.380Z,19.80
2022-09-09T01:05:38.080Z,19.89
2022-09-09T01:08:17.956Z,19.34
2022-09-09T01:10:54.292Z,19.29
2022-09-09T01:13:27.193Z,18.99
2022-09-09T01:15:59.826Z,19.45
2022-09-09T01:18:35.816Z,19.20
2022-09-09T01:21:11.344Z,19.50
2022-09-09T01:24:03.724Z,19.68
2022-09-09T01:26:36.370Z,19.69
2022-09-09T01:29:05.414Z,19.57
2022-09-09T01:31:38.050Z,19.33
2022-09-09T01:34:12.792Z,19.54
2022-09-09T01:36:48.188Z,19.70
2022-09-09T01:39:16.710Z,19.78
2022-09-09T01:41:46.320Z,19.61
2022-09-09T01:44:15.031Z,19.77
2022-09-09T01:46:43.463Z,19.74
2022-09-09T01:49:12.263Z,19.63
2022-09-09T01:51:43.893Z,19.68
2022-09-09T01:54:12.975Z,19.58
2022-09-09T01:56:53.465Z,19.39
2022-09-09T01:59:34.288Z,19.81
2022-09-09T02:02:12.291Z,19.75
2022-09-09T02:04:43.535Z,19.64
2022-09-09T02:07:24.810Z,19.16
2022-09-09T02:10:01.505Z,19.57
2022-09-09T02:12:32.721Z,19.44
2022-09-09T02:15:07.559Z,19.31
2022-09-09T02:17:40.627Z,19.45
2022-09-09T02:20:12.590Z,18.71
2022-09-09T02:22:45.132Z,18.56
2022-09-09T02:25:18.208Z,19.10
2022-09-09T02:27:50.092Z,18.89
2022-09-09T02:30:18.638Z,18.61
2022-09-09T02:32:49.102Z,18.87
2022-09-09T02:35:21.299Z,18.91
2022-09-09T02:37:51.625Z,19.06
2022-09-09T02:40:20.212Z,18.60
2022-09-09T02:42:51.284Z,18.42
2022-09-09T02:45:22.114Z,18.66
2022-09-09T02:47:56.178Z,19.00
2022-09-09T02:50:32.181Z,19.24
2022-09-09T02:53:12.416Z,18.61
2022-09-09T02:55:44.471Z,18.75
2022-09-09T02:58:18.085Z,18.77
2022-09-09T03:00:48.082Z,18.90
2022-09-09T03:03:18.459Z,18.95
2022-09-09T03:05:47.407Z,18.64
2022-09-09T03:08:16.338Z,19.14
2022-09-09T03:10:44.901Z,19.26
2022-09-09T03:13:16.380Z,19.18
2022-09-09T03:15:44.709Z,19.25
2022-09-09T03:18:13.047Z,19.32
2022-09-09T03:20:44.176Z,19.16
2022-09-09T03:23:15.889Z,19.17
2022-09-09T03:25:49.363Z,19.02
2022-09-09T03:28:19.143Z,19.21
2022-09-09T03:30:47.367Z,19.24
2022-09-09T03:33:16.140Z,19.17
2022-09-09T03:35:49.926Z,19.20
2022-09-09T03:38:18.199Z,19.20
2022-09-09T03:40:52.367Z,19.14
2022-09-09T03:43:22.344Z,19.17
2022-09-09T03:45:50.858Z,19.02
2022-09-09T03:48:20.061Z,19.03
2022-09-09T03:50:48.388Z,19.16
2022-09-09T03:53:17.740Z,19.12
2022-09-09T03:55:47.132Z,18.47
2022-09-09T03:58:15.912Z,18.62
2022-09-09T04:00:46.295Z,18.73
2022-09-09T04:03:14.653Z,19.05
2022-09-09T04:05:43.501Z,19.02
2022-09-09T04:08:12.603Z,18.97
2022-09-09T04:10:40.941Z,18.96
2022-09-09T04:13:09.221Z,18.98
2022-09-09T04:15:37.742Z,19.13
2022-09-09T04:18:07.562Z,18.95
2022-09-09T04:20:36.503Z,19.25
2022-09-09T04:23:04.805Z,18.75
2022-09-09T04:25:33.438Z,18.92
2022-09-09T04:28:01.743Z,19.01
2022-09-09T04:30:30.004Z,18.62
2022-09-09T04:32:59.693Z,18.91
2022-09-09T04:35:29.388Z,18.82
2022-09-09T04:37:57.704Z,18.94
2022-09-09T04:40:25.972Z,19.15
2022-09-09T04:42:54.374Z,19.07
2022-09-09T04:45:22.637Z,19.14
2022-09-09T04:47:51.241Z,19.08
2022-09-09T04:50:19.791Z,18.86
2022-09-09T04:52:49.692Z,18.82
2022-09-09T04:55:18.216Z,19.31
2022-09-09T04:57:46.574Z,19.62
2022-09-09T05:00:16.127Z,19.70
2022-09-09T05:02:44.397Z,19.76
2022-09-09T05:05:13.243Z,19.35
2022-09-09T05:07:41.585Z,19.35
2022-09-09T05:10:11.825Z,19.15
2022-09-09T05:12:40.176Z,18.99
2022-09-09T05:15:09.384Z,19.12
2022-09-09T05:17:37.727Z,18.90
2022-09-09T05:20:09.893Z,18.41
2022-09-09T05:22:39.538Z,18.73
2022-09-09T05:25:08.892Z,18.29
2022-09-09T05:27:38.747Z,18.22
2022-09-09T05:30:07.814Z,18.19
2022-09-09T05:32:36.055Z,18.10
2022-09-09T05:35:05.221Z,18.38
2022-09-09T05:37:33.752Z,17.99
2022-09-09T05:40:02.251Z,18.11
2022-09-09T05:42:33.596Z,18.17
2022-09-09T05:45:03.530Z,18.30
2022-09-09T05:47:31.803Z,18.52
2022-09-09T05:50:00.056Z,18.76
2022-09-09T05:52:28.432Z,18.78
2022-09-09T05:54:58.138Z,19.02
2022-09-09T05:57:26.407Z,19.71
2022-09-09T05:59:54.827Z,19.24
2022-09-09T06:02:24.583Z,19.35
2022-09-09T06:04:52.928Z,19.25
2022-09-09T06:07:21.285Z,20.40
2022-09-09T06:09:49.621Z,20.18
2022-09-09T06:12:17.860Z,21.20
2022-09-09T06:14:46.806Z,21.43
2022-09-09T06:17:15.099Z,21.96
2022-09-09T06:19:44.885Z,22.10
2022-09-09T06:22:13.720Z,22.31
2022-09-09T06:24:41.998Z,21.89
2022-09-09T06:27:10.267Z,22.08
2022-09-09T06:29:38.667Z,21.60
2022-09-09T06:32:09.622Z,22.24
2022-09-09T06:34:37.881Z,23.39
2022-09-09T06:37:07.704Z,24.05
2022-09-09T06:39:36.301Z,24.11
2022-09-09T06:42:05.149Z,24.63
2022-09-09T06:44:35.608Z,24.38
2022-09-09T06:47:04.447Z,24.58
2022-09-09T06:49:32.741Z,25.44
2022-09-09T06:52:01.059Z,25.19
2022-09-09T06:54:30.714Z,24.80
2022-09-09T06:57:00.759Z,25.19
2022-09-09T06:59:33.180Z,25.03
2022-09-09T07:02:02.399Z,25.27
2022-09-09T07:04:30.693Z,25.50
2022-09-09T07:07:00.012Z,26.16
2022-09-09T07:09:28.528Z,26.95
2022-09-09T07:11:59.396Z,25.99
2022-09-09T07:14:28.183Z,25.88
2022-09-09T07:16:59.672Z,26.15
2022-09-09T07:19:28.488Z,26.86
2022-09-09T07:21:56.702Z,27.88
2022-09-09T07:24:24.925Z,28.07
2022-09-09T07:26:53.289Z,28.18
2022-09-09T07:29:23.051Z,27.86
2022-09-09T07:31:51.365Z,28.44
2022-09-09T07:34:20.190Z,28.52
2022-09-09T07:36:48.463Z,27.90
2022-09-09T07:39:18.529Z,27.46
2022-09-09T07:41:48.797Z,28.72
2022-09-09T07:44:19.363Z,28.34
2022-09-09T07:46:49.068Z,27.83
2022-09-09T07:49:22.766Z,27.79
2022-09-09T07:51:54.759Z,28.67
2022-09-09T07:54:24.866Z,28.25
2022-09-09T07:56:54.485Z,29.50
2022-09-09T07:59:22.835Z,30.16
2022-09-09T08:01:55.581Z,29.70
2022-09-09T08:04:26.342Z,29.95
2022-09-09T08:06:56.711Z,30.59
2022-09-09T08:09:28.181Z,30.69
2022-09-09T08:11:57.465Z,30.34
2022-09-09T08:14:25.898Z,30.28
2022-09-09T08:16:55.956Z,32.05
2022-09-09T08:19:24.615Z,32.04
2022-09-09T08:21:52.924Z,32.68
2022-09-09T08:24:21.323Z,31.53
2022-09-09T08:26:50.808Z,31.86
2022-09-09T08:29:19.756Z,31.99
2022-09-09T08:31:49.889Z,31.99
2022-09-09T08:34:21.647Z,32.52
2022-09-09T08:36:51.580Z,32.57
2022-09-09T08:39:21.319Z,32.56
2022-09-09T08:42:12.882Z,33.14
2022-09-09T08:44:58.442Z,32.82
2022-09-09T08:47:37.326Z,31.77
2022-09-09T08:50:20.946Z,31.97
2022-09-09T08:52:56.526Z,32.98
2022-09-09T08:55:30.299Z,33.25
2022-09-09T08:58:02.061Z,32.26
2022-09-09T09:00:39.701Z,32.41
2022-09-09T09:03:18.642Z,32.66
2022-09-09T09:05:53.634Z,32.74
2022-09-09T09:08:29.734Z,33.02
2022-09-09T09:11:01.557Z,33.11
2022-09-09T09:13:41.683Z,33.93
2022-09-09T09:16:22.219Z,34.02
2022-09-09T09:18:52.183Z,33.71
2022-09-09T09:21:29.260Z,32.48
2022-09-09T09:24:00.614Z,32.84
2022-09-09T09:26:35.001Z,32.75
2022-09-09T09:29:10.883Z,33.29
2022-09-09T09:31:39.234Z,34.19
2022-09-09T09:34:07.926Z,35.03
2022-09-09T09:36:42.665Z,34.39
2022-09-09T09:42:05.150Z,31.05
2022-09-09T09:44:38.343Z,31.68
2022-09-09T09:47:11.943Z,31.03
2022-09-09T09:49:40.462Z,31.88
2022-09-09T09:52:23.591Z,31.34
2022-09-09T09:54:53.347Z,31.24
2022-09-09T09:57:28.249Z,31.31
2022-09-09T10:00:08.073Z,31.53
2022-09-09T10:02:41.845Z,31.66
2022-09-09T10:05:17.930Z,31.67
2022-09-09T10:07:49.077Z,32.22
2022-09-09T10:10:23.212Z,31.65
2022-09-09T10:13:03.211Z,31.34
2022-09-09T10:15:44.394Z,31.30
2022-09-09T10:18:28.837Z,31.48
2022-09-09T10:21:06.391Z,31.89
2022-09-09T10:24:11.156Z,31.40
2022-09-09T10:26:48.493Z,32.16
2022-09-09T10:29:35.382Z,32.45
2022-09-09T10:32:15.648Z,33.17
2022-09-09T10:34:58.077Z,34.26
2022-09-09T10:37:39.389Z,33.81
2022-09-09T10:40:25.796Z,33.42
2022-09-09T10:42:59.477Z,33.38
2022-09-09T10:45:35.880Z,34.07
2022-09-09T10:48:28.956Z,34.55
2022-09-09T10:51:05.432Z,35.38
2022-09-09T10:53:49.425Z,34.79
2022-09-09T10:56:22.816Z,35.10
2022-09-09T10:58:54.951Z,35.66
2022-09-09T11:01:26.317Z,36.16
2022-09-09T11:03:59.434Z,35.90
2022-09-09T11:06:34.936Z,36.87
2022-09-09T11:09:06.291Z,35.95
2022-09-09T11:11:42.092Z,35.74
2022-09-09T11:14:17.773Z,36.46
2022-09-09T11:16:53.273Z,36.23
2022-09-09T11:19:29.081Z,35.91
2022-09-09T11:21:59.500Z,36.09
2022-09-09T11:24:33.879Z,36.68
2022-09-09T11:27:10.522Z,36.43
2022-09-09T11:30:08.453Z,36.99
2022-09-09T11:33:11.196Z,37.07
2022-09-09T11:35:57.103Z,37.03
2022-09-09T11:38:29.019Z,37.44
2022-09-09T11:41:01.662Z,37.35
2022-09-09T11:43:36.249Z,37.39
2022-09-09T11:46:05.482Z,37.42
2022-09-09T11:48:38.893Z,37.89
2022-09-09T11:51:14.567Z,37.59
2022-09-09T11:53:53.729Z,37.82
2022-09-09T11:56:30.999Z,38.80
2022-09-09T11:59:04.845Z,38.04
2022-09-09T12:01:38.349Z,38.27
2022-09-09T12:04:35.632Z,38.28
2022-09-09T12:07:06.981Z,37.85
2022-09-09T12:09:48.932Z,37.68
2022-09-09T12:12:34.611Z,37.58
2022-09-09T12:15:27.309Z,37.07
2022-09-09T12:18:02.131Z,35.48
2022-09-09T12:20:37.014Z,36.09
2022-09-09T12:23:24.967Z,36.54
2022-09-09T12:26:03.458Z,37.12
2022-09-09T12:28:46.184Z,37.81
2022-09-09T12:31:23.259Z,38.15
2022-09-09T12:33:53.752Z,38.05
2022-09-09T12:36:26.655Z,38.60
2022-09-09T12:38:56.287Z,38.60
2022-09-09T12:41:26.807Z,37.80
2022-09-09T12:44:06.963Z,37.90
2022-09-09T12:46:41.913Z,37.49
2022-09-09T12:49:30.016Z,37.77
2022-09-09T12:51:59.732Z,36.80
2022-09-09T12:54:29.218Z,37.10
2022-09-09T12:56:57.511Z,36.85
2022-09-09T12:59:28.431Z,36.77
2022-09-09T13:02:01.639Z,35.86
2022-09-09T13:04:30.160Z,35.95
2022-09-09T13:07:11.157Z,34.79
2022-09-09T13:09:45.501Z,34.08
2022-09-09T13:12:17.225Z,34.78
2022-09-09T13:14:49.584Z,34.73
2022-09-09T13:17:22.829Z,35.46
2022-09-09T13:19:53.975Z,36.61
2022-09-09T13:22:34.027Z,36.46
2022-09-09T13:25:05.834Z,36.19
2022-09-09T13:27:36.152Z,36.06
2022-09-09T13:30:19.804Z,35.60
2022-09-09T13:32:49.456Z,35.06
2022-09-09T13:35:26.176Z,35.17
2022-09-09T13:37:54.561Z,34.68
2022-09-09T13:40:24.509Z,35.31
2022-09-09T13:42:57.595Z,35.50
2022-09-09T13:45:28.502Z,35.15
2022-09-09T13:47:58.597Z,34.33
2022-09-09T13:50:29.071Z,33.46
2022-09-09T13:52:59.446Z,32.94
2022-09-09T13:55:29.861Z,32.70
2022-09-09T13:58:00.027Z,32.94
2022-09-09T14:00:28.876Z,32.37
2022-09-09T14:02:58.700Z,32.66
2022-09-09T14:05:27.237Z,31.97
2022-09-09T14:07:55.638Z,32.15
2022-09-09T14:10:23.903Z,32.59
2022-09-09T14:12:52.293Z,32.51
2022-09-09T14:15:21.172Z,32.91
2022-09-09T14:17:49.743Z,33.00
2022-09-09T14:20:20.348Z,32.79
2022-09-09T14:22:48.697Z,31.97
2022-09-09T14:25:17.133Z,32.31
2022-09-09T14:27:47.009Z,32.43
2022-09-09T14:30:15.536Z,32.30
2022-09-09T14:32:43.803Z,32.46
2022-09-09T14:35:12.763Z,32.70
2022-09-09T14:37:42.466Z,32.74
2022-09-09T14:40:12.486Z,32.62
2022-09-09T14:42:41.497Z,31.69
2022-09-09T14:45:10.768Z,31.30
2022-09-09T14:47:39.196Z,31.37
2022-09-09T14:50:09.090Z,31.06
2022-09-09T14:52:37.916Z,30.77
2022-09-09T14:55:09.122Z,31.52
2022-09-09T14:57:37.691Z,31.24
2022-09-09T15:00:07.318Z,31.70
2022-09-09T15:02:36.115Z,31.75
2022-09-09T15:05:05.501Z,31.50
2022-09-09T15:07:35.221Z,31.83
2022-09-09T15:10:03.897Z,31.45
2022-09-09T15:12:34.342Z,31.74
2022-09-09T15:15:03.186Z,31.24
2022-09-09T15:17:31.458Z,30.61
2022-09-09T15:19:59.729Z,30.42
2022-09-09T15:22:28.032Z,30.50
2022-09-09T15:24:56.349Z,30.07
2022-09-09T15:27:25.176Z,29.56
2022-09-09T15:29:54.919Z,29.30
2022-09-09T15:32:23.175Z,29.46
2022-09-09T15:34:52.516Z,29.30
2022-09-09T15:37:20.879Z,29.06
2022-09-09T15:39:49.202Z,29.24
2022-09-09T15:42:17.540Z,29.32
2022-09-09T15:44:45.859Z,28.55
2022-09-09T15:47:16.366Z,28.21
2022-09-09T15:49:44.714Z,28.46
2022-09-09T15:52:13.379Z,28.27
2022-09-09T15:54:41.691Z,28.80
2022-09-09T15:57:13.443Z,28.54
2022-09-09T15:59:41.755Z,28.58
2022-09-09T16:02:12.009Z,28.63
2022-09-09T16:04:41.879Z,28.90
2022-09-09T16:07:10.072Z,28.77
2022-09-09T16:09:38.960Z,28.54
2022-09-09T16:12:10.744Z,28.17
2022-09-09T16:14:39.931Z,28.43
2022-09-09T16:17:12.236Z,28.25
2022-09-09T16:19:41.976Z,28.04
2022-09-09T16:22:10.541Z,28.11
2022-09-09T16:24:39.460Z,28.12
2022-09-09T16:27:07.853Z,28.09
2022-09-09T16:29:36.141Z,27.98
2022-09-09T16:32:04.869Z,27.82
2022-09-09T16:34:34.760Z,27.94
2022-09-09T16:37:04.634Z,27.41
2022-09-09T16:39:32.966Z,27.73
2022-09-09T16:42:01.267Z,27.77
2022-09-09T16:44:29.580Z,27.65
2022-09-09T16:47:00.762Z,27.57
2022-09-09T16:49:29.902Z,27.28
2022-09-09T16:52:00.420Z,27.18
2022-09-09T16:54:30.357Z,26.94
2022-09-09T16:56:59.220Z,27.17
2022-09-09T16:59:27.812Z,27.02
2022-09-09T17:01:56.118Z,26.95
2022-09-09T17:04:29.056Z,25.96
2022-09-09T17:06:58.532Z,26.76
2022-09-09T17:09:30.459Z,26.80
2022-09-09T17:11:59.947Z,26.56
2022-09-09T17:14:28.208Z,26.75
2022-09-09T17:17:05.245Z,26.64
2022-09-09T17:19:42.196Z,26.53
2022-09-09T17:22:17.296Z,26.48
2022-09-09T17:24:47.743Z,26.35
2022-09-09T17:27:16.017Z,26.28
2022-09-09T17:29:44.286Z,26.20
2022-09-09T17:32:12.649Z,26.08
2022-09-09T17:34:40.955Z,26.06
2022-09-09T17:37:09.282Z,26.12
2022-09-09T17:39:37.820Z,26.14
2022-09-09T17:42:08.531Z,26.12
2022-09-09T17:44:36.831Z,26.10
2022-09-09T17:47:07.191Z,26.03
2022-09-09T17:49:35.864Z,25.77
2022-09-09T17:52:04.765Z,25.80
2022-09-09T17:54:34.035Z,25.82
2022-09-09T17:57:02.453Z,25.64
2022-09-09T17:59:32.322Z,25.74
2022-09-09T18:02:00.789Z,25.72
2022-09-09T18:04:29.259Z,25.74
2022-09-09T18:06:58.392Z,25.52
2022-09-09T18:09:28.088Z,25.50
2022-09-09T18:11:59.369Z,25.23
2022-09-09T18:14:30.262Z,24.93
2022-09-09T18:17:00.743Z,24.22
2022-09-09T18:19:30.856Z,24.77
2022-09-09T18:22:01.922Z,24.92
2022-09-09T18:24:32.018Z,24.83
2022-09-09T18:27:01.013Z,24.63
2022-09-09T18:29:29.993Z,24.27
2022-09-09T18:32:00.977Z,23.97
2022-09-09T18:34:30.318Z,23.56
2022-09-09T18:36:59.473Z,23.62
2022-09-09T18:39:29.965Z,23.38
2022-09-09T18:42:00.698Z,23.50
2022-09-09T18:44:31.487Z,23.36
2022-09-09T18:47:01.399Z,23.17
2022-09-09T18:49:29.982Z,23.29
2022-09-09T18:51:59.344Z,23.12
2022-09-09T18:54:30.511Z,23.10
2022-09-09T18:57:00.662Z,23.15
2022-09-09T18:59:29.432Z,23.54
2022-09-09T19:01:58.253Z,23.61
2022-09-09T19:04:28.199Z,23.37
2022-09-09T19:06:59.066Z,23.48
2022-09-09T19:09:29.875Z,23.73
2022-09-09T19:11:58.719Z,24.07
2022-09-09T19:14:27.507Z,24.22
2022-09-09T19:16:56.488Z,24.25
2022-09-09T19:19:29.025Z,24.35
2022-09-09T19:21:58.259Z,24.40
2022-09-09T19:24:28.906Z,24.36
2022-09-09T19:27:01.803Z,24.45
2022-09-09T19:29:33.144Z,24.27
2022-09-09T19:32:49.228Z,24.34
2022-09-09T19:34:52.887Z,23.97
2022-09-09T19:37:22.584Z,23.56
2022-09-09T19:39:51.554Z,23.25
2022-09-09T19:42:20.437Z,23.69
2022-09-09T19:44:49.524Z,23.93
2022-09-09T19:47:18.303Z,24.01
2022-09-09T19:49:47.563Z,23.63
2022-09-09T19:52:17.824Z,23.86
2022-09-09T19:54:46.800Z,23.76
2022-09-09T19:57:15.641Z,23.93
2022-09-09T19:59:44.138Z,23.94
2022-09-09T20:02:15.554Z,23.98
2022-09-09T20:04:44.819Z,23.90
2022-09-09T20:07:13.435Z,23.88
2022-09-09T20:09:43.248Z,23.91
2022-09-09T20:12:11.490Z,23.78
2022-09-09T20:14:40.242Z,23.17
2022-09-09T20:17:09.117Z,22.87
2022-09-09T20:19:38.798Z,22.93
2022-09-09T20:22:07.113Z,23.19
2022-09-09T20:24:37.137Z,23.21
2022-09-09T20:27:08.325Z,23.11
2022-09-09T20:29:37.708Z,23.52
2022-09-09T20:32:06.969Z,23.54
2022-09-09T20:34:35.191Z,23.08
2022-09-09T20:37:04.811Z,23.17
2022-09-09T20:39:33.226Z,23.25
2022-09-09T20:42:03.085Z,23.26
2022-09-09T20:44:32.813Z,22.96
2022-09-09T20:47:06.349Z,23.06
2022-09-09T20:49:36.367Z,23.01
2022-09-09T20:52:06.064Z,22.97
2022-09-09T20:54:36.065Z,22.47
2022-09-09T20:57:04.443Z,22.21
2022-09-09T20:59:34.841Z,22.12
2022-09-09T21:02:03.454Z,22.41
2022-09-09T21:04:32.030Z,22.55
2022-09-09T21:07:00.564Z,22.35
2022-09-09T21:09:28.802Z,22.38
2022-09-09T21:11:57.096Z,22.36
2022-09-09T21:14:25.377Z,22.36
2022-09-09T21:16:55.705Z,22.30
2022-09-09T21:19:24.372Z,22.27
2022-09-09T21:21:52.653Z,22.47
2022-09-09T21:24:20.964Z,22.72
2022-09-09T21:26:49.542Z,22.89
2022-09-09T21:29:17.788Z,23.00
2022-09-09T21:31:46.033Z,23.09
2022-09-09T21:34:15.752Z,22.86
2022-09-09T21:36:44.018Z,23.13
2022-09-09T21:39:12.352Z,23.19
2022-09-09T21:41:40.637Z,23.27
2022-09-09T21:44:14.378Z,23.23
2022-09-09T21:46:43.429Z,22.49
2022-09-09T21:49:11.860Z,22.36
2022-09-09T21:51:41.599Z,22.75
2022-09-09T21:54:09.907Z,22.98
2022-09-09T21:56:38.243Z,23.00
2022-09-09T21:59:06.530Z,22.99
2022-09-09T22:01:34.911Z,23.04
2022-09-09T22:04:03.805Z,22.91
2022-09-09T22:06:32.071Z,22.57
2022-09-09T22:09:03.818Z,22.76
2022-09-09T22:11:32.180Z,22.83
2022-09-09T22:14:00.525Z,23.00
2022-09-09T22:16:28.774Z,23.05
2022-09-09T22:18:59.161Z,23.07
2022-09-09T22:21:29.727Z,22.97
2022-09-09T22:24:00.309Z,22.63
2022-09-09T22:26:32.915Z,22.83
2022-09-09T22:29:01.558Z,22.92
2022-09-09T22:31:30.075Z,22.56
2022-09-09T22:33:58.920Z,22.66
2022-09-09T22:36:27.757Z,22.81
2022-09-09T22:38:56.932Z,22.77
2022-09-09T22:41:26.271Z,22.69
2022-09-09T22:43:56.150Z,22.48
2022-09-09T22:46:24.425Z,22.69
2022-09-09T22:48:52.737Z,22.65
2022-09-09T22:51:21.200Z,22.35
2022-09-09T22:53:49.532Z,22.49
2022-09-09T22:56:20.501Z,22.61
2022-09-09T22:58:55.820Z,22.60
2022-09-09T23:01:27.009Z,22.10
2022-09-09T23:03:59.242Z,22.13
2022-09-09T23:06:29.068Z,21.67
2022-09-09T23:08:59.908Z,21.58
2022-09-09T23:11:31.157Z,21.87
2022-09-09T23:14:01.393Z,22.12
2022-09-09T23:16:33.962Z,21.84
2022-09-09T23:19:02.890Z,21.85
2022-09-09T23:21:32.409Z,21.99
2022-09-09T23:24:01.342Z,21.97
2022-09-09T23:26:30.083Z,22.16
2022-09-09T23:29:00.013Z,22.16
2022-09-09T23:31:33.003Z,22.16
2022-09-09T23:34:02.401Z,21.69
2022-09-09T23:36:31.647Z,22.18
2022-09-09T23:39:02.170Z,22.20
2022-09-09T23:41:31.126Z,21.92
2022-09-09T23:43:59.504Z,22.00
2022-09-09T23:46:29.337Z,22.04
2022-09-09T23:48:59.736Z,22.08
2022-09-09T23:51:30.709Z,22.12
2022-09-09T23:54:01.974Z,21.87
2022-09-09T23:56:32.541Z,21.87
2022-09-09T23:59:01.039Z,21.91
